Terminal Aerodrome Forecast
Issued by NWS

Home | Current Version | Previous Version | Text Only | Print | Product List | Glossary On
Versions: 1 2 3 4 5 6 7 8 9 10 11 12 13 14 15 16 17 18 19 20
000
FTUS43 KLSX 041504 AAB
TAFCPS
TAF AMD
KCPS 041504Z 0415/0512 12006KT 3SM -RA BR OVC007
      TEMPO 0415/0417 1SM -RA BR
     FM042100 27006KT P6SM OVC015
     FM050200 28005KT P6SM SKC
     FM051000 VRB03KT 4SM BR SCT250=

USA.gov is the U.S. government's official web portal to all federal, state and local government web resources and services.